createdAt,value
2023-01-29T00:00:47.181Z,90.27
2023-01-29T00:01:48.886Z,89.46
2023-01-29T00:02:50.594Z,89.75
2023-01-29T00:03:52.524Z,91.65
2023-01-29T00:04:58.702Z,90.45
2023-01-29T00:06:01.161Z,89.27
2023-01-29T00:07:02.777Z,90.59
2023-01-29T00:08:04.625Z,90.05
2023-01-29T00:09:06.362Z,89.19
2023-01-29T00:10:08.742Z,89.28
2023-01-29T00:11:10.556Z,90.81
2023-01-29T00:12:12.259Z,89.83
2023-01-29T00:13:14.119Z,90.17
2023-01-29T00:14:15.813Z,90.19
2023-01-29T00:15:17.992Z,89.71
2023-01-29T00:16:19.798Z,88.89
2023-01-29T00:17:21.563Z,89.39
2023-01-29T00:18:23.852Z,89.51
2023-01-29T00:19:25.514Z,88.56
2023-01-29T00:20:27.165Z,89.21
2023-01-29T00:21:30.963Z,89.14
2023-01-29T00:22:32.587Z,88.99
2023-01-29T00:23:34.159Z,89.61
2023-01-29T00:24:35.985Z,89.23
2023-01-29T00:25:37.583Z,88.87
2023-01-29T00:26:40.107Z,88.07
2023-01-29T00:27:41.758Z,89.38
2023-01-29T00:28:43.900Z,88.53
2023-01-29T00:30:05.476Z,88.36
2023-01-29T00:31:18.720Z,88.86
2023-01-29T00:32:20.527Z,88.97
2023-01-29T00:33:22.204Z,88.46
2023-01-29T00:34:23.919Z,87.36
2023-01-29T00:35:25.547Z,87.20
2023-01-29T00:36:27.544Z,88.10
2023-01-29T00:37:29.216Z,88.32
2023-01-29T00:38:30.930Z,88.95
2023-01-29T00:39:47.412Z,88.79
2023-01-29T00:41:08.725Z,87.93
2023-01-29T00:42:29.143Z,88.24
2023-01-29T00:43:49.335Z,88.28
2023-01-29T00:45:00.003Z,88.68
2023-01-29T00:46:01.756Z,87.86
2023-01-29T00:47:04.151Z,86.53
2023-01-29T00:48:06.361Z,87.80
2023-01-29T00:49:08.540Z,88.43
2023-01-29T00:50:11.863Z,88.28
2023-01-29T00:51:13.531Z,87.02
2023-01-29T00:52:24.179Z,87.77
2023-01-29T00:53:25.980Z,88.04
2023-01-29T00:54:27.589Z,87.12
2023-01-29T00:55:29.231Z,87.42
2023-01-29T00:56:30.899Z,87.50
2023-01-29T00:57:34.256Z,86.57
2023-01-29T00:58:35.913Z,88.00
2023-01-29T00:59:37.603Z,86.00
2023-01-29T01:00:39.377Z,86.95
2023-01-29T01:01:59.543Z,87.61
2023-01-29T01:03:07.731Z,89.53
2023-01-29T01:04:11.567Z,87.07
2023-01-29T01:05:18.129Z,86.80
2023-01-29T01:06:19.987Z,87.12
2023-01-29T01:07:21.642Z,87.33
2023-01-29T01:08:41.648Z,87.08
2023-01-29T01:10:02.131Z,86.69
2023-01-29T01:11:07.289Z,87.40
2023-01-29T01:12:08.900Z,88.02
2023-01-29T01:13:10.455Z,88.72
2023-01-29T01:14:12.101Z,87.42
2023-01-29T01:15:13.980Z,88.07
2023-01-29T01:16:18.643Z,88.21
2023-01-29T01:17:20.353Z,87.82
2023-01-29T01:18:22.470Z,87.44
2023-01-29T01:19:24.042Z,87.24
2023-01-29T01:20:27.529Z,88.34
2023-01-29T01:21:29.292Z,88.13
2023-01-29T01:22:31.879Z,87.91
2023-01-29T01:23:33.593Z,88.51
2023-01-29T01:24:35.715Z,88.72
2023-01-29T01:25:37.951Z,87.23
2023-01-29T01:26:39.783Z,87.77
2023-01-29T01:27:41.697Z,87.84
2023-01-29T01:28:43.290Z,88.09
2023-01-29T01:29:47.764Z,89.29
2023-01-29T01:30:49.362Z,89.02
2023-01-29T01:31:53.577Z,87.58
2023-01-29T01:32:55.224Z,88.12
2023-01-29T01:33:57.060Z,86.78
2023-01-29T01:35:00.350Z,86.63
2023-01-29T01:36:02.395Z,87.59
2023-01-29T01:37:04.313Z,87.51
2023-01-29T01:38:05.927Z,87.09
2023-01-29T01:39:07.569Z,87.70
2023-01-29T01:40:18.296Z,87.33
2023-01-29T01:41:22.492Z,86.46
2023-01-29T01:42:30.170Z,91.72
2023-01-29T01:44:00.144Z,87.17
2023-01-29T01:45:06.335Z,87.37
2023-01-29T01:46:08.077Z,86.93
2023-01-29T01:47:09.700Z,88.11
2023-01-29T01:48:18.008Z,86.93
2023-01-29T01:49:21.663Z,86.67
2023-01-29T01:50:33.726Z,87.18
2023-01-29T01:51:39.753Z,86.62
2023-01-29T01:52:45.425Z,86.67
2023-01-29T01:53:54.202Z,87.10
2023-01-29T01:54:55.768Z,87.81
2023-01-29T01:56:03.779Z,87.67
2023-01-29T01:57:16.000Z,89.53
2023-01-29T01:58:21.580Z,87.88
2023-01-29T01:59:24.078Z,87.29
2023-01-29T02:00:26.257Z,86.98
2023-01-29T02:01:28.591Z,89.33
2023-01-29T02:02:48.771Z,89.87
2023-01-29T02:03:59.212Z,89.58
2023-01-29T02:05:19.664Z,91.83
2023-01-29T02:06:39.921Z,87.46
2023-01-29T02:08:05.208Z,88.02
2023-01-29T02:09:31.895Z,88.13
2023-01-29T02:10:40.901Z,87.08
2023-01-29T02:11:42.447Z,87.71
2023-01-29T02:12:45.283Z,87.45
2023-01-29T02:13:46.878Z,87.56
2023-01-29T02:14:48.733Z,87.85
2023-01-29T02:15:50.373Z,87.55
2023-01-29T02:16:52.012Z,90.82
2023-01-29T02:17:53.609Z,89.23
2023-01-29T02:18:55.362Z,88.06
2023-01-29T02:20:09.326Z,87.70
2023-01-29T02:21:25.239Z,88.15
2023-01-29T02:22:40.662Z,88.29
2023-01-29T02:24:20.432Z,88.34
2023-01-29T02:25:37.122Z,91.94
2023-01-29T02:27:04.761Z,88.92
2023-01-29T02:28:24.269Z,87.22
2023-01-29T02:29:35.357Z,87.17
2023-01-29T02:30:41.872Z,89.54
2023-01-29T02:31:48.195Z,88.40
2023-01-29T02:33:13.043Z,88.27
2023-01-29T02:34:17.580Z,88.43
2023-01-29T02:35:30.558Z,93.48
2023-01-29T02:36:46.927Z,94.74
2023-01-29T02:38:13.770Z,89.04
2023-01-29T02:39:23.136Z,88.22
2023-01-29T02:40:45.730Z,88.12
2023-01-29T02:42:02.724Z,87.89
2023-01-29T02:43:09.756Z,92.62
2023-01-29T02:44:38.930Z,88.26
2023-01-29T02:45:48.343Z,88.35
2023-01-29T02:47:04.203Z,88.97
2023-01-29T02:48:06.056Z,90.66
2023-01-29T02:49:26.117Z,88.73
2023-01-29T02:50:47.738Z,89.10
2023-01-29T02:51:58.979Z,88.99
2023-01-29T02:53:12.078Z,88.92
2023-01-29T02:54:24.991Z,88.49
2023-01-29T02:55:46.683Z,88.67
2023-01-29T02:56:58.977Z,89.36
2023-01-29T02:58:08.865Z,88.67
2023-01-29T02:59:17.199Z,89.27
2023-01-29T03:00:21.888Z,89.46
2023-01-29T03:01:33.326Z,89.22
2023-01-29T03:02:34.913Z,89.08
2023-01-29T03:03:41.015Z,88.30
2023-01-29T03:04:47.529Z,89.57
2023-01-29T03:06:08.079Z,88.73
2023-01-29T03:07:35.799Z,88.31
2023-01-29T03:08:45.599Z,90.26
2023-01-29T03:09:51.079Z,91.33
2023-01-29T03:10:57.859Z,89.87
2023-01-29T03:12:20.014Z,87.70
2023-01-29T03:13:28.784Z,88.10
2023-01-29T03:14:55.449Z,88.58
2023-01-29T03:16:04.136Z,88.42
2023-01-29T03:17:15.189Z,87.94
2023-01-29T03:18:27.531Z,87.34
2023-01-29T03:19:43.992Z,87.84
2023-01-29T03:20:59.113Z,87.21
2023-01-29T03:22:04.141Z,88.71
2023-01-29T03:23:13.320Z,88.62
2023-01-29T03:24:37.659Z,88.36
2023-01-29T03:25:59.893Z,90.40
2023-01-29T03:27:27.097Z,88.35
2023-01-29T03:28:49.157Z,89.57
2023-01-29T03:30:10.579Z,88.27
2023-01-29T03:31:45.001Z,88.92
2023-01-29T03:32:47.612Z,88.41
2023-01-29T03:33:52.414Z,88.78
2023-01-29T03:34:58.360Z,89.13
2023-01-29T03:36:07.416Z,89.32
2023-01-29T03:37:19.349Z,90.26
2023-01-29T03:38:21.153Z,90.69
2023-01-29T03:39:28.383Z,88.40
2023-01-29T03:40:50.660Z,87.97
2023-01-29T03:41:58.117Z,88.90
2023-01-29T03:43:22.376Z,88.19
2023-01-29T03:44:37.156Z,89.02
2023-01-29T03:46:00.740Z,91.70
2023-01-29T03:47:34.705Z,89.24
2023-01-29T03:48:40.312Z,91.65
2023-01-29T03:50:02.357Z,89.41
2023-01-29T03:51:25.759Z,89.17
2023-01-29T03:52:56.334Z,88.63
2023-01-29T03:54:08.300Z,88.71
2023-01-29T03:55:15.851Z,88.84
2023-01-29T03:56:32.945Z,88.29
2023-01-29T03:57:41.737Z,88.70
2023-01-29T03:59:01.431Z,89.17
2023-01-29T04:00:32.076Z,88.53
2023-01-29T04:01:42.250Z,88.63
2023-01-29T04:02:52.972Z,87.88
2023-01-29T04:03:54.922Z,88.67
2023-01-29T04:05:01.591Z,88.15
2023-01-29T04:06:29.608Z,91.98
2023-01-29T04:07:41.981Z,87.43
2023-01-29T04:08:48.633Z,87.12
2023-01-29T04:10:13.045Z,87.02
2023-01-29T04:11:17.756Z,90.83
2023-01-29T04:12:24.302Z,88.43
2023-01-29T04:13:26.943Z,87.49
2023-01-29T04:14:28.499Z,88.04
2023-01-29T04:15:33.893Z,88.83
2023-01-29T04:16:39.233Z,89.65
2023-01-29T04:17:52.666Z,88.86
2023-01-29T04:19:17.164Z,90.22
2023-01-29T04:20:20.646Z,92.38
2023-01-29T04:21:22.392Z,90.91
2023-01-29T04:22:34.613Z,88.04
2023-01-29T04:23:36.239Z,90.17
2023-01-29T04:24:38.070Z,88.31
2023-01-29T04:25:45.906Z,87.67
2023-01-29T04:27:29.300Z,87.07
2023-01-29T04:29:17.783Z,88.89
2023-01-29T04:30:24.039Z,88.73
2023-01-29T04:31:30.896Z,88.80
2023-01-29T04:32:42.220Z,87.12
2023-01-29T04:34:24.561Z,87.48
2023-01-29T04:35:26.068Z,89.01
2023-01-29T04:36:36.933Z,91.87
2023-01-29T04:37:53.611Z,88.52
2023-01-29T04:39:21.204Z,88.45
2023-01-29T04:40:46.924Z,88.36
2023-01-29T04:42:03.503Z,88.02
2023-01-29T04:43:13.154Z,88.61
2023-01-29T04:44:32.705Z,88.38
2023-01-29T04:46:09.588Z,89.51
2023-01-29T04:47:24.701Z,89.70
2023-01-29T04:48:26.406Z,87.86
2023-01-29T04:49:34.424Z,88.23
2023-01-29T04:50:44.722Z,91.51
2023-01-29T04:51:58.343Z,87.86
2023-01-29T04:53:14.894Z,88.38
2023-01-29T04:54:30.025Z,91.73
2023-01-29T04:55:47.770Z,88.30
2023-01-29T04:56:52.486Z,88.25
2023-01-29T04:58:15.351Z,87.96
2023-01-29T04:59:53.188Z,88.02
2023-01-29T05:00:54.901Z,88.13
2023-01-29T05:01:56.793Z,87.45
2023-01-29T05:02:59.606Z,90.07
2023-01-29T05:04:09.198Z,88.06
2023-01-29T05:05:12.865Z,88.64
2023-01-29T05:06:16.146Z,88.57
2023-01-29T05:07:18.310Z,88.04
2023-01-29T05:08:23.362Z,88.65
2023-01-29T05:09:25.549Z,87.86
2023-01-29T05:10:27.576Z,88.37
2023-01-29T05:11:31.061Z,89.80
2023-01-29T05:12:33.621Z,89.47
2023-01-29T05:13:39.395Z,88.17
2023-01-29T05:14:44.171Z,88.38
2023-01-29T05:15:52.919Z,88.43
2023-01-29T05:16:54.390Z,88.67
2023-01-29T05:18:03.008Z,89.13
2023-01-29T05:19:04.595Z,89.15
2023-01-29T05:20:07.180Z,88.81
2023-01-29T05:21:08.838Z,91.48
2023-01-29T05:22:12.599Z,88.02
2023-01-29T05:23:19.524Z,88.95
2023-01-29T05:24:23.008Z,87.98
2023-01-29T05:25:27.573Z,88.13
2023-01-29T05:26:47.791Z,88.71
2023-01-29T05:28:14.059Z,88.92
2023-01-29T05:29:15.701Z,89.71
2023-01-29T05:30:17.729Z,89.21
2023-01-29T05:31:19.569Z,89.68
2023-01-29T05:32:21.235Z,90.05
2023-01-29T05:33:30.768Z,89.64
2023-01-29T05:34:32.366Z,89.73
2023-01-29T05:35:34.817Z,89.55
2023-01-29T05:36:36.465Z,91.88
2023-01-29T05:37:38.128Z,88.97
2023-01-29T05:38:39.751Z,89.26
2023-01-29T05:39:41.374Z,89.59
2023-01-29T05:40:43.416Z,91.29
2023-01-29T05:41:45.032Z,92.32
2023-01-29T05:42:46.682Z,90.73
2023-01-29T05:43:48.401Z,91.12
2023-01-29T05:44:50.064Z,89.02
2023-01-29T05:45:53.673Z,90.21
2023-01-29T05:46:55.328Z,89.34
2023-01-29T05:47:58.297Z,91.32
2023-01-29T05:48:59.986Z,89.81
2023-01-29T05:50:01.628Z,89.52
2023-01-29T05:51:04.308Z,90.13
2023-01-29T05:52:05.896Z,89.55
2023-01-29T05:53:07.664Z,90.38
2023-01-29T05:54:12.376Z,91.77
2023-01-29T05:55:13.999Z,89.69
2023-01-29T05:56:15.580Z,92.04
2023-01-29T05:57:17.174Z,89.35
2023-01-29T05:58:19.821Z,92.53
2023-01-29T05:59:21.379Z,92.90
2023-01-29T06:00:23.467Z,91.11
2023-01-29T06:01:25.787Z,90.66
2023-01-29T06:02:30.426Z,94.31
2023-01-29T06:03:31.997Z,93.86
2023-01-29T06:04:33.650Z,91.10
2023-01-29T06:05:38.189Z,90.04
2023-01-29T06:06:39.957Z,90.15
2023-01-29T06:07:45.239Z,89.90
2023-01-29T06:08:46.872Z,91.77
2023-01-29T06:09:48.650Z,92.49
2023-01-29T06:10:50.252Z,93.93
2023-01-29T06:11:51.822Z,92.57
2023-01-29T06:12:53.411Z,88.91
2023-01-29T06:13:55.043Z,91.80
2023-01-29T06:14:56.685Z,92.56
2023-01-29T06:15:58.324Z,92.13
2023-01-29T06:17:00.010Z,91.30
2023-01-29T06:18:01.631Z,93.06
2023-01-29T06:19:03.255Z,92.68
2023-01-29T06:20:05.841Z,91.74
2023-01-29T06:21:09.888Z,93.13
2023-01-29T06:22:11.571Z,91.94
2023-01-29T06:23:13.158Z,90.35
2023-01-29T06:24:14.909Z,90.56
2023-01-29T06:25:16.677Z,90.45
2023-01-29T06:26:18.581Z,92.50
2023-01-29T06:27:20.649Z,91.28
2023-01-29T06:28:22.520Z,90.23
2023-01-29T06:29:24.233Z,90.22
2023-01-29T06:30:25.844Z,90.21
2023-01-29T06:31:43.003Z,90.87
2023-01-29T06:32:44.718Z,91.04
2023-01-29T06:33:46.341Z,91.07
2023-01-29T06:34:49.684Z,90.43
2023-01-29T06:36:02.411Z,91.03
2023-01-29T06:37:04.412Z,91.18
2023-01-29T06:38:06.540Z,89.61
2023-01-29T06:39:08.569Z,89.77
2023-01-29T06:40:11.141Z,93.79
2023-01-29T06:41:14.630Z,91.83
2023-01-29T06:42:16.277Z,93.16
2023-01-29T06:43:17.991Z,92.83
2023-01-29T06:44:19.599Z,91.39
2023-01-29T06:45:21.323Z,91.79
2023-01-29T06:46:22.985Z,93.92
2023-01-29T06:47:24.928Z,94.10
2023-01-29T06:48:26.489Z,92.23
2023-01-29T06:49:28.090Z,92.11
2023-01-29T06:50:29.721Z,93.34
2023-01-29T06:51:31.303Z,90.11
2023-01-29T06:52:32.914Z,91.35
2023-01-29T06:53:35.702Z,90.93
2023-01-29T06:54:37.348Z,89.65
2023-01-29T06:55:39.108Z,91.80
2023-01-29T06:56:40.683Z,93.11
2023-01-29T06:57:42.278Z,92.97
2023-01-29T06:58:43.945Z,91.17
2023-01-29T06:59:45.569Z,89.31
2023-01-29T07:00:47.269Z,90.11
2023-01-29T07:01:49.017Z,89.34
2023-01-29T07:02:50.798Z,92.02
2023-01-29T07:03:52.653Z,90.33
2023-01-29T07:04:54.248Z,91.96
2023-01-29T07:05:55.867Z,92.10
2023-01-29T07:06:59.547Z,90.59
2023-01-29T07:08:01.147Z,92.38
2023-01-29T07:09:05.810Z,91.28
2023-01-29T07:10:08.607Z,91.50
2023-01-29T07:11:10.245Z,91.70
2023-01-29T07:12:11.942Z,91.55
2023-01-29T07:13:13.522Z,92.39
2023-01-29T07:14:15.440Z,92.84
2023-01-29T07:15:20.299Z,92.40
2023-01-29T07:16:21.965Z,92.78
2023-01-29T07:17:23.655Z,90.89
2023-01-29T07:18:25.326Z,90.03
2023-01-29T07:19:27.006Z,92.78
2023-01-29T07:20:30.158Z,92.69
2023-01-29T07:21:31.801Z,90.31
2023-01-29T07:22:33.390Z,90.13
2023-01-29T07:23:35.488Z,89.50
2023-01-29T07:24:37.104Z,92.15
2023-01-29T07:25:39.699Z,89.67
2023-01-29T07:26:41.198Z,88.84
2023-01-29T07:27:42.737Z,89.06
2023-01-29T07:28:44.309Z,89.85
2023-01-29T07:29:45.910Z,88.17
2023-01-29T07:30:47.708Z,88.12
2023-01-29T07:31:49.436Z,88.77
2023-01-29T07:32:51.084Z,89.33
2023-01-29T07:33:52.660Z,87.82
2023-01-29T07:34:54.267Z,87.32
2023-01-29T07:35:56.031Z,86.90
2023-01-29T07:36:57.631Z,87.55
2023-01-29T07:37:59.229Z,87.52
2023-01-29T07:39:00.840Z,87.51
2023-01-29T07:40:02.438Z,86.56
2023-01-29T07:41:04.388Z,87.31
2023-01-29T07:42:06.011Z,86.91
2023-01-29T07:43:08.009Z,86.89
2023-01-29T07:44:09.651Z,86.53
2023-01-29T07:45:12.139Z,85.13
2023-01-29T07:46:13.950Z,85.27
2023-01-29T07:47:17.207Z,85.92
2023-01-29T07:48:19.264Z,86.16
2023-01-29T07:49:20.877Z,85.46
2023-01-29T07:50:23.946Z,91.25
2023-01-29T07:51:25.586Z,86.88
2023-01-29T07:52:29.781Z,86.76
2023-01-29T07:53:31.524Z,89.20
2023-01-29T07:54:33.105Z,86.70
2023-01-29T07:55:34.704Z,84.97
2023-01-29T07:56:36.311Z,85.04
2023-01-29T07:57:37.926Z,85.51
2023-01-29T07:58:39.506Z,85.08
2023-01-29T07:59:41.155Z,85.18
2023-01-29T08:00:43.717Z,84.72
2023-01-29T08:01:45.319Z,85.61
2023-01-29T08:02:46.931Z,85.54
2023-01-29T08:03:50.591Z,86.42
2023-01-29T08:04:53.019Z,85.88
2023-01-29T08:05:54.663Z,86.01
2023-01-29T08:06:56.232Z,85.27
2023-01-29T08:08:06.622Z,84.22
2023-01-29T08:09:08.847Z,83.74
2023-01-29T08:10:11.140Z,83.25
2023-01-29T08:11:13.062Z,84.08
2023-01-29T08:12:14.753Z,83.16
2023-01-29T08:13:16.308Z,83.31
2023-01-29T08:14:17.936Z,83.04
2023-01-29T08:15:19.583Z,82.72
2023-01-29T08:16:21.193Z,84.21
2023-01-29T08:17:23.062Z,86.12
2023-01-29T08:18:24.729Z,85.39
2023-01-29T08:19:26.336Z,84.54
2023-01-29T08:20:28.497Z,83.91
2023-01-29T08:21:30.122Z,84.18
2023-01-29T08:22:31.797Z,83.92
2023-01-29T08:23:33.473Z,85.38
2023-01-29T08:24:47.657Z,84.49
2023-01-29T08:25:55.948Z,84.77
2023-01-29T08:26:57.580Z,84.55
2023-01-29T08:28:00.198Z,86.18
2023-01-29T08:29:01.783Z,85.41
2023-01-29T08:30:04.625Z,84.17
2023-01-29T08:31:13.785Z,85.23
2023-01-29T08:32:15.349Z,84.98
2023-01-29T08:33:19.478Z,85.38
2023-01-29T08:34:23.252Z,85.29
2023-01-29T08:35:25.549Z,85.51
2023-01-29T08:36:27.144Z,85.15
2023-01-29T08:37:28.730Z,84.65
2023-01-29T08:38:30.294Z,87.94
2023-01-29T08:39:33.673Z,88.07
2023-01-29T08:40:36.070Z,87.07
2023-01-29T08:41:37.647Z,87.12
2023-01-29T08:42:41.305Z,87.46
2023-01-29T08:43:42.890Z,87.02
2023-01-29T08:44:44.496Z,89.84
2023-01-29T08:45:46.214Z,90.83
2023-01-29T08:46:47.795Z,88.36
2023-01-29T08:47:50.151Z,86.24
2023-01-29T08:48:51.829Z,85.84
2023-01-29T08:49:53.453Z,85.84
2023-01-29T08:50:57.667Z,86.08
2023-01-29T08:52:00.453Z,86.90
2023-01-29T08:53:07.799Z,84.91
2023-01-29T08:54:09.427Z,83.87
2023-01-29T08:55:11.615Z,82.80
2023-01-29T08:56:13.225Z,83.77
2023-01-29T08:57:14.825Z,84.03
2023-01-29T08:58:16.388Z,84.04
2023-01-29T08:59:18.075Z,84.48
2023-01-29T09:00:20.070Z,83.12
2023-01-29T09:01:21.729Z,84.50
2023-01-29T09:02:23.392Z,82.68
2023-01-29T09:03:24.982Z,82.16
2023-01-29T09:04:26.571Z,81.33
2023-01-29T09:05:28.780Z,82.04
2023-01-29T09:06:30.354Z,80.67
2023-01-29T09:07:32.072Z,80.99
2023-01-29T09:08:33.643Z,80.19
2023-01-29T09:09:35.238Z,80.41
2023-01-29T09:10:36.955Z,80.37
2023-01-29T09:11:40.534Z,80.40
2023-01-29T09:12:42.150Z,80.15
2023-01-29T09:13:43.842Z,80.19
2023-01-29T09:14:45.457Z,80.77
2023-01-29T09:15:47.059Z,80.44
2023-01-29T09:16:48.709Z,80.88
2023-01-29T09:17:50.336Z,80.98
2023-01-29T09:18:53.136Z,82.37
2023-01-29T09:19:54.761Z,81.71
2023-01-29T09:20:57.119Z,81.85
2023-01-29T09:21:58.873Z,81.30
2023-01-29T09:23:07.697Z,80.91
2023-01-29T09:24:09.342Z,80.83
2023-01-29T09:25:11.137Z,81.16
2023-01-29T09:26:12.777Z,81.36
2023-01-29T09:27:14.474Z,81.14
2023-01-29T09:28:17.657Z,80.27
2023-01-29T09:29:19.206Z,81.55
2023-01-29T09:30:21.002Z,79.86
2023-01-29T09:31:22.691Z,81.48
2023-01-29T09:32:52.091Z,80.14
2023-01-29T09:33:46.103Z,80.40
2023-01-29T09:34:47.667Z,81.16
2023-01-29T09:35:49.356Z,80.98
2023-01-29T09:36:52.311Z,78.93
2023-01-29T09:37:54.049Z,79.22
2023-01-29T09:38:55.683Z,81.68
2023-01-29T09:39:57.255Z,80.64
2023-01-29T09:41:06.245Z,80.21
2023-01-29T09:42:27.824Z,79.41
2023-01-29T09:43:39.367Z,81.36
2023-01-29T09:45:04.827Z,81.53
2023-01-29T09:46:15.844Z,81.04
2023-01-29T09:47:17.999Z,82.08
2023-01-29T09:48:20.481Z,82.48
2023-01-29T09:49:27.880Z,83.55
2023-01-29T09:50:41.003Z,83.06
2023-01-29T09:51:46.759Z,82.71
2023-01-29T09:52:59.145Z,83.19
2023-01-29T09:54:15.640Z,82.00
2023-01-29T09:55:32.572Z,82.40
2023-01-29T09:56:35.154Z,79.72
2023-01-29T09:57:50.394Z,83.83
2023-01-29T09:58:52.035Z,87.21
2023-01-29T09:59:54.464Z,80.52
2023-01-29T10:00:59.067Z,80.49
2023-01-29T10:02:11.162Z,86.72
2023-01-29T10:03:12.725Z,84.60
2023-01-29T10:04:29.171Z,84.53
2023-01-29T10:05:58.689Z,83.01
2023-01-29T10:07:12.132Z,79.32
2023-01-29T10:08:13.691Z,78.90
2023-01-29T10:09:46.459Z,78.27
2023-01-29T10:10:49.250Z,78.63
2023-01-29T10:11:59.949Z,77.42
2023-01-29T10:13:12.191Z,77.26
2023-01-29T10:14:18.320Z,77.20
2023-01-29T10:15:53.666Z,77.83
2023-01-29T10:17:00.903Z,78.58
2023-01-29T10:18:27.332Z,79.80
2023-01-29T10:19:43.828Z,79.49
2023-01-29T10:21:01.235Z,79.92
2023-01-29T10:22:08.870Z,79.28
2023-01-29T10:23:20.795Z,79.56
2023-01-29T10:24:29.055Z,79.23
2023-01-29T10:25:33.829Z,78.75
2023-01-29T10:26:37.872Z,78.64
2023-01-29T10:27:41.688Z,79.87
2023-01-29T10:28:46.504Z,78.76
2023-01-29T10:29:51.014Z,79.81
2023-01-29T10:30:58.539Z,78.60
2023-01-29T10:32:06.039Z,79.09
2023-01-29T10:33:12.895Z,80.42
2023-01-29T10:34:40.477Z,77.85
2023-01-29T10:35:50.272Z,78.83
2023-01-29T10:36:51.906Z,78.11
2023-01-29T10:37:54.529Z,76.69
2023-01-29T10:38:56.052Z,77.84
2023-01-29T10:39:59.978Z,75.51
2023-01-29T10:41:01.506Z,75.80
2023-01-29T10:42:15.382Z,75.83
2023-01-29T10:43:29.884Z,75.98
2023-01-29T10:44:34.247Z,75.83
2023-01-29T10:46:08.117Z,76.27
2023-01-29T10:47:33.438Z,78.29
2023-01-29T10:48:47.144Z,78.95
2023-01-29T10:50:04.509Z,78.39
2023-01-29T10:51:41.455Z,77.83
2023-01-29T10:53:01.260Z,77.54
2023-01-29T10:54:33.421Z,77.58
2023-01-29T10:55:56.060Z,78.80
2023-01-29T10:56:57.618Z,79.77
2023-01-29T10:58:07.440Z,79.41
2023-01-29T10:59:18.029Z,80.93
2023-01-29T11:00:22.914Z,82.15
2023-01-29T11:01:24.663Z,79.13
2023-01-29T11:02:26.407Z,80.40
2023-01-29T11:03:31.120Z,80.24
2023-01-29T11:04:33.796Z,80.69
2023-01-29T11:05:36.919Z,80.26
2023-01-29T11:06:38.832Z,78.15
2023-01-29T11:07:40.509Z,81.01
2023-01-29T11:08:59.380Z,82.15
2023-01-29T11:10:08.326Z,80.68
2023-01-29T11:11:17.879Z,80.20
2023-01-29T11:12:23.721Z,80.93
2023-01-29T11:13:31.472Z,79.61
2023-01-29T11:14:53.242Z,79.23
2023-01-29T11:15:54.885Z,79.90
2023-01-29T11:16:56.485Z,79.71
2023-01-29T11:18:05.736Z,81.20
2023-01-29T11:19:07.347Z,79.52
2023-01-29T11:20:26.659Z,77.87
2023-01-29T11:21:29.665Z,77.48
2023-01-29T11:22:31.461Z,77.25
2023-01-29T11:23:33.822Z,76.71
2023-01-29T11:24:35.470Z,79.31
2023-01-29T11:25:37.054Z,77.03
2023-01-29T11:26:40.866Z,75.25
2023-01-29T11:27:50.145Z,74.78
2023-01-29T11:28:51.840Z,76.72
2023-01-29T11:29:54.135Z,74.95
2023-01-29T11:30:55.915Z,76.19
2023-01-29T11:31:59.241Z,76.02
2023-01-29T11:33:23.857Z,76.09
2023-01-29T11:34:27.661Z,73.89
2023-01-29T11:35:30.646Z,73.63
2023-01-29T11:36:39.237Z,74.17
2023-01-29T11:37:42.901Z,74.32
2023-01-29T11:38:44.485Z,74.06
2023-01-29T11:39:47.297Z,73.65
2023-01-29T11:40:48.943Z,74.59
2023-01-29T11:41:57.939Z,74.84
2023-01-29T11:43:12.811Z,75.36
2023-01-29T11:44:19.477Z,75.65
2023-01-29T11:45:29.969Z,76.17
2023-01-29T11:46:32.266Z,75.79
2023-01-29T11:47:33.889Z,75.05
2023-01-29T11:48:59.414Z,76.42
2023-01-29T11:50:17.824Z,76.38
2023-01-29T11:51:27.544Z,75.63
2023-01-29T11:52:37.024Z,74.74
2023-01-29T11:53:46.290Z,74.91
2023-01-29T11:55:10.941Z,76.18
2023-01-29T11:56:17.202Z,75.46
2023-01-29T11:57:26.413Z,74.69
2023-01-29T11:58:30.267Z,76.54
2023-01-29T11:59:48.532Z,76.40
2023-01-29T12:00:51.721Z,76.73
2023-01-29T12:01:54.222Z,75.35
2023-01-29T12:02:59.280Z,77.48
2023-01-29T12:04:01.441Z,76.23
2023-01-29T12:05:15.579Z,76.38
2023-01-29T12:06:24.997Z,76.52
2023-01-29T12:07:26.735Z,76.32
2023-01-29T12:08:38.420Z,76.86
2023-01-29T12:09:40.433Z,77.61
2023-01-29T12:10:43.139Z,76.27
2023-01-29T12:11:44.658Z,75.60
2023-01-29T12:12:46.290Z,75.34
2023-01-29T12:13:54.287Z,75.99
2023-01-29T12:15:08.789Z,75.81
2023-01-29T12:16:19.306Z,76.23
2023-01-29T12:17:26.281Z,76.27
2023-01-29T12:18:40.526Z,77.07
2023-01-29T12:19:51.194Z,76.12
2023-01-29T12:21:02.623Z,75.99
2023-01-29T12:22:17.561Z,79.38
2023-01-29T12:23:22.184Z,75.25
2023-01-29T12:24:46.327Z,76.39
2023-01-29T12:25:58.941Z,78.43
2023-01-29T12:27:06.576Z,79.43
2023-01-29T12:28:19.219Z,78.80
2023-01-29T12:29:58.217Z,79.33
2023-01-29T12:31:20.922Z,79.73
2023-01-29T12:32:43.696Z,80.63
2023-01-29T12:34:15.555Z,79.54
2023-01-29T12:35:17.170Z,81.68
2023-01-29T12:36:25.161Z,81.30
2023-01-29T12:37:45.952Z,84.04
2023-01-29T12:38:47.889Z,79.23
2023-01-29T12:39:50.087Z,79.76
2023-01-29T12:41:07.335Z,83.92
2023-01-29T12:42:16.963Z,79.10
2023-01-29T12:43:30.062Z,80.21
2023-01-29T12:44:51.927Z,80.34
2023-01-29T12:45:55.468Z,82.53
2023-01-29T12:46:59.688Z,81.87
2023-01-29T12:48:06.790Z,81.57
2023-01-29T12:49:18.422Z,83.02
2023-01-29T12:50:24.580Z,81.75
2023-01-29T12:51:31.549Z,81.62
2023-01-29T12:52:38.458Z,80.71
2023-01-29T12:53:57.761Z,79.55
2023-01-29T12:55:03.682Z,77.23
2023-01-29T12:56:12.872Z,78.70
2023-01-29T12:57:24.502Z,78.20
2023-01-29T12:58:38.463Z,77.26
2023-01-29T12:59:44.249Z,77.64
2023-01-29T13:00:48.709Z,77.78
2023-01-29T13:01:53.882Z,77.22
2023-01-29T13:02:57.041Z,78.22
2023-01-29T13:04:07.388Z,78.79
2023-01-29T13:05:20.094Z,78.73
2023-01-29T13:06:27.721Z,78.39
2023-01-29T13:07:33.532Z,79.27
2023-01-29T13:08:49.571Z,78.46
2023-01-29T13:09:54.472Z,77.94
2023-01-29T13:10:58.356Z,76.83
2023-01-29T13:12:04.343Z,77.07
2023-01-29T13:13:14.666Z,79.42
2023-01-29T13:14:16.181Z,80.30
2023-01-29T13:15:23.395Z,80.17
2023-01-29T13:16:28.408Z,78.79
2023-01-29T13:17:36.540Z,78.83
2023-01-29T13:18:43.227Z,79.03
2023-01-29T13:19:50.051Z,80.39
2023-01-29T13:20:51.835Z,80.13
2023-01-29T13:21:55.383Z,80.87
2023-01-29T13:23:02.295Z,80.11
2023-01-29T13:24:07.527Z,79.04
2023-01-29T13:25:20.045Z,79.31
2023-01-29T13:26:22.588Z,79.16
2023-01-29T13:27:27.129Z,80.01
2023-01-29T13:28:28.780Z,79.54
2023-01-29T13:29:31.023Z,79.85
2023-01-29T13:30:35.339Z,80.14
2023-01-29T13:31:38.992Z,80.43
2023-01-29T13:32:41.432Z,80.21
2023-01-29T13:33:43.599Z,80.49
2023-01-29T13:34:46.738Z,79.73
2023-01-29T13:35:48.966Z,81.80
2023-01-29T13:36:58.794Z,78.76
2023-01-29T13:38:00.418Z,79.74
2023-01-29T13:39:06.013Z,80.07
2023-01-29T13:40:08.526Z,79.59
2023-01-29T13:41:10.220Z,80.29
2023-01-29T13:42:21.543Z,80.16
2023-01-29T13:43:23.812Z,79.54
2023-01-29T13:44:32.916Z,80.59
2023-01-29T13:45:43.576Z,80.96
2023-01-29T13:46:49.896Z,80.97
2023-01-29T13:47:52.613Z,81.85
2023-01-29T13:48:58.145Z,82.71
2023-01-29T13:50:09.338Z,81.46
2023-01-29T13:51:19.504Z,82.01
2023-01-29T13:52:34.966Z,81.84
2023-01-29T13:53:40.704Z,81.91
2023-01-29T13:54:50.911Z,82.19
2023-01-29T13:55:52.557Z,82.32
2023-01-29T13:56:59.263Z,81.97
2023-01-29T13:58:02.412Z,82.26
2023-01-29T13:59:06.808Z,81.90
2023-01-29T14:00:33.970Z,82.97
2023-01-29T14:01:47.652Z,83.23
2023-01-29T14:02:55.074Z,83.39
2023-01-29T14:04:04.911Z,82.78
2023-01-29T14:05:29.410Z,82.84
2023-01-29T14:06:43.036Z,83.37
2023-01-29T14:07:44.511Z,84.54
2023-01-29T14:08:47.303Z,82.96
2023-01-29T14:09:48.902Z,84.66
2023-01-29T14:11:30.664Z,86.71
2023-01-29T14:12:33.735Z,84.04
2023-01-29T14:13:35.885Z,85.51
2023-01-29T14:14:59.507Z,82.13
2023-01-29T14:16:01.093Z,81.17
2023-01-29T14:17:03.107Z,82.54
2023-01-29T14:18:13.833Z,80.22
2023-01-29T14:19:18.591Z,79.96
2023-01-29T14:20:27.607Z,81.34
2023-01-29T14:21:34.014Z,81.93
2023-01-29T14:22:35.670Z,87.70
2023-01-29T14:23:51.324Z,82.61
2023-01-29T14:24:59.897Z,81.48
2023-01-29T14:26:04.715Z,81.44